Time;durP1;ratioP1;P1;durP2;ratioP2;P2;SDS_P1;SDS_P2;PMS_P1;PMS_P2;Temp;Humidity;BMP_temperature;BMP_pressure;BME280_temperature;BME280_humidity;BME280_pressure;Samples;Min_cycle;Max_cycle;Signal;HPM_P1;HPM_P2
2023/10/13 00:01:37;;;;;;;7.60;3.00;;;;;;;15.83;50.51;93132.78;2068146;69;20152;-72
2023/10/13 00:04:05;;;;;;;7.47;3.08;;;;;;;15.80;50.71;93134.03;2067982;69;20148;-74
2023/10/13 00:06:31;;;;;;;8.93;3.38;;;;;;;15.71;51.48;93136.50;2068237;69;20135;-75
2023/10/13 00:08:57;;;;;;;5.10;3.25;;;;;;;15.50;52.00;93129.06;2067763;69;20132;-74
2023/10/13 00:11:26;;;;;;;7.07;2.97;;;;;;;15.64;51.43;93137.56;2070874;69;20133;-75
2023/10/13 00:13:54;;;;;;;6.20;2.97;;;;;;;15.63;51.64;93136.06;2071773;69;20198;-75
2023/10/13 00:16:21;;;;;;;5.43;3.40;;;;;;;15.62;50.76;93131.00;2071813;69;20167;-74
2023/10/13 00:18:54;;;;;;;6.95;2.97;;;;;;;15.57;50.37;93132.19;2071585;69;20225;-75
2023/10/13 00:21:31;;;;;;;6.53;2.90;;;;;;;15.63;50.31;93124.00;2065671;69;20167;-74
2023/10/13 00:23:59;;;;;;;8.63;2.70;;;;;;;15.72;49.46;93128.72;2071938;69;20239;-74
2023/10/13 00:26:28;;;;;;;8.32;3.30;;;;;;;15.62;49.95;93133.84;2068757;69;20166;-74
2023/10/13 00:31:40;;;;;;;11.82;3.40;;;;;;;15.38;51.07;93119.19;2072725;69;20223;-74
2023/10/13 00:34:18;;;;;;;7.75;3.63;;;;;;;15.40;51.58;93125.72;2072139;69;20603;-74
2023/10/13 00:39:30;;;;;;;5.85;2.83;;;;;;;15.29;52.09;93117.31;2072399;69;20163;-75
2023/10/13 00:41:59;;;;;;;8.55;3.33;;;;;;;15.24;52.52;93110.72;2068973;69;20189;-73
2023/10/13 00:44:44;;;;;;;6.75;3.50;;;;;;;15.16;52.74;93115.97;2068861;69;20603;-74
2023/10/13 00:47:16;;;;;;;14.18;3.30;;;;;;;15.24;51.89;93113.56;2068943;69;20603;-74
2023/10/13 00:49:47;;;;;;;5.55;2.92;;;;;;;15.18;52.73;93116.81;2072355;69;20595;-74
2023/10/13 00:52:15;;;;;;;7.43;2.88;;;;;;;15.09;52.89;93120.63;2072283;69;20214;-75
2023/10/13 00:54:45;;;;;;;9.55;3.30;;;;;;;15.06;53.02;93119.03;2066213;69;20214;-74
2023/10/13 00:57:30;;;;;;;10.10;3.20;;;;;;;14.99;53.95;93115.16;2068822;69;20205;-75
2023/10/13 01:00:12;;;;;;;8.48;2.92;;;;;;;15.07;53.46;93119.75;2072325;69;20237;-74
2023/10/13 01:02:38;;;;;;;11.70;3.78;;;;;;;15.09;53.56;93112.09;2072192;69;20140;-74
2023/10/13 01:05:11;;;;;;;6.50;3.08;;;;;;;14.90;54.10;93109.72;2072362;69;20164;-75
2023/10/13 01:07:37;;;;;;;10.98;4.50;;;;;;;14.97;53.63;93115.06;2072232;69;20288;-75
2023/10/13 01:10:14;;;;;;;11.82;4.60;;;;;;;14.87;54.70;93105.31;2069021;69;20583;-75
2023/10/13 01:12:42;;;;;;;11.60;5.85;;;;;;;14.76;54.87;93103.31;2068704;69;20140;-76
2023/10/13 01:15:11;;;;;;;8.55;4.47;;;;;;;14.83;54.31;93103.00;2072259;69;20622;-75
2023/10/13 01:17:36;;;;;;;10.63;5.38;;;;;;;14.84;53.94;93117.88;2068888;69;20172;-75
2023/10/13 01:20:05;;;;;;;9.73;4.88;;;;;;;14.73;54.85;93117.38;2068804;69;20665;-76
2023/10/13 01:22:32;;;;;;;10.25;4.90;;;;;;;14.71;54.93;93113.72;2069068;69;20642;-74
2023/10/13 01:25:06;;;;;;;11.73;4.70;;;;;;;14.71;54.70;93103.09;2072177;69;20160;-76
2023/10/13 01:27:38;;;;;;;9.90;4.20;;;;;;;14.72;54.01;93106.69;2068766;69;20144;-75
2023/10/13 01:30:22;;;;;;;7.97;3.80;;;;;;;14.55;55.19;93104.34;2066083;69;20152;-77
2023/10/13 01:32:53;;;;;;;10.93;4.65;;;;;;;14.48;55.32;93100.47;2072700;69;20155;-76
2023/10/13 01:35:25;;;;;;;8.48;4.47;;;;;;;14.27;55.70;93095.06;2066153;69;20650;-78
2023/10/13 01:37:52;;;;;;;9.70;3.92;;;;;;;14.39;55.60;93107.03;2068202;69;20210;-76
2023/10/13 01:40:20;;;;;;;8.60;3.88;;;;;;;14.40;54.97;93103.56;2072372;69;20136;-78
2023/10/13 01:42:47;;;;;;;7.15;3.42;;;;;;;14.29;55.67;93100.81;2066206;69;20159;-75
2023/10/13 01:45:13;;;;;;;7.43;3.50;;;;;;;14.35;55.50;93109.66;2069088;69;20578;-75
2023/10/13 01:47:39;;;;;;;7.93;3.55;;;;;;;14.27;55.78;93106.38;2066299;69;20132;-75
2023/10/13 01:50:13;;;;;;;7.07;3.40;;;;;;;14.36;54.79;93103.34;2069270;69;20155;-75
2023/10/13 01:52:39;;;;;;;10.25;3.50;;;;;;;14.26;55.98;93100.00;2069195;69;20141;-75
2023/10/13 01:55:07;;;;;;;6.97;3.30;;;;;;;14.11;56.40;93092.84;2072381;69;20213;-74
2023/10/13 01:57:32;;;;;;;7.00;3.33;;;;;;;14.11;56.70;93092.84;2066135;69;20176;-75
2023/10/13 02:00:08;;;;;;;7.95;3.20;;;;;;;14.14;56.53;93096.50;2069255;69;20183;-75
2023/10/13 02:02:44;;;;;;;5.50;3.20;;;;;;;14.13;55.89;93095.03;2072575;69;20604;-75
2023/10/13 02:05:10;;;;;;;9.70;3.30;;;;;;;14.10;56.76;93087.78;2069256;69;20144;-75
2023/10/13 02:07:38;;;;;;;7.90;3.50;;;;;;;13.97;56.13;93084.31;2069255;69;20214;-75
2023/10/13 02:10:12;;;;;;;9.55;3.83;;;;;;;14.08;56.04;93084.84;2068527;69;20157;-75
2023/10/13 02:12:43;;;;;;;6.28;3.05;;;;;;;14.02;56.45;93087.34;2068517;69;20159;-75
2023/10/13 02:15:20;;;;;;;6.68;3.00;;;;;;;13.98;56.84;93091.44;2069238;69;20144;-77
2023/10/13 02:17:51;;;;;;;7.38;3.13;;;;;;;13.99;55.96;93095.00;2066040;69;20148;-77
2023/10/13 02:20:23;;;;;;;9.38;3.70;;;;;;;13.88;57.27;93095.78;2068683;69;20139;-75
2023/10/13 02:22:49;;;;;;;6.53;2.93;;;;;;;13.90;56.72;93093.81;2065660;69;20619;-76
2023/10/13 02:28:08;;;;;;;6.68;2.78;;;;;;;13.76;56.72;93098.69;2068475;69;20152;-76
2023/10/13 02:30:38;;;;;;;8.45;3.08;;;;;;;13.86;55.66;93098.53;2068807;69;20580;-76
2023/10/13 02:33:06;;;;;;;5.68;2.80;;;;;;;13.77;56.11;93083.19;2065594;69;20153;-77
2023/10/13 02:35:41;;;;;;;7.95;3.30;;;;;;;13.79;55.77;93088.97;2065748;69;20149;-78
2023/10/13 02:38:13;;;;;;;7.18;3.05;;;;;;;13.76;56.99;93087.38;2066040;69;20216;-77
2023/10/13 02:40:41;;;;;;;8.65;3.17;;;;;;;13.70;57.09;93084.97;2068575;69;20161;-77
2023/10/13 02:43:07;;;;;;;6.72;2.78;;;;;;;13.63;57.23;93085.97;2068576;69;20129;-77
2023/10/13 02:45:36;;;;;;;6.43;3.03;;;;;;;13.70;56.41;93084.22;2068619;69;20230;-76
2023/10/13 02:48:17;;;;;;;5.55;2.80;;;;;;;13.62;56.58;93083.78;2068512;69;20152;-76
2023/10/13 02:50:45;;;;;;;5.47;2.88;;;;;;;13.58;56.94;93097.69;2068435;69;20167;-76
2023/10/13 02:53:18;;;;;;;9.02;3.40;;;;;;;13.57;56.89;93099.06;2069110;69;20256;-75
2023/10/13 02:55:52;;;;;;;9.95;2.78;;;;;;;13.56;57.32;93083.41;2068722;69;20613;-74
2023/10/13 02:58:18;;;;;;;9.20;4.45;;;;;;;13.44;57.08;93087.03;2068723;69;20144;-75
2023/10/13 03:00:46;;;;;;;11.32;5.30;;;;;;;13.25;58.05;93078.91;2068276;69;20156;-74
2023/10/13 03:03:16;;;;;;;8.50;5.10;;;;;;;13.33;58.08;93081.44;2068495;69;20278;-74
2023/10/13 03:05:42;;;;;;;10.70;4.53;;;;;;;13.34;57.87;93085.75;2068585;69;20132;-75
2023/10/13 03:08:10;;;;;;;13.50;4.20;;;;;;;13.38;57.35;93080.31;2068384;69;20224;-75
2023/10/13 03:10:40;;;;;;;8.90;4.32;;;;;;;13.21;58.51;93072.97;2068346;69;20236;-75
2023/10/13 03:13:09;;;;;;;9.40;3.70;;;;;;;13.33;58.06;93087.84;2068286;69;20223;-75
2023/10/13 03:15:35;;;;;;;5.90;3.78;;;;;;;13.13;58.17;93078.91;2069013;69;20172;-76
2023/10/13 03:18:02;;;;;;;8.63;4.20;;;;;;;13.14;57.98;93083.19;2068624;69;20171;-76
2023/10/13 03:20:34;;;;;;;6.70;3.28;;;;;;;13.19;58.30;93078.50;2068511;69;20260;-75
2023/10/13 03:23:16;;;;;;;10.90;2.92;;;;;;;13.31;57.43;93079.22;2068775;69;20202;-76
2023/10/13 03:25:49;;;;;;;7.80;3.40;;;;;;;13.35;57.30;93084.38;2068216;69;20149;-76
2023/10/13 03:28:20;;;;;;;5.35;3.13;;;;;;;12.92;58.01;93087.53;2068139;69;20533;-74
2023/10/13 03:30:47;;;;;;;7.85;3.67;;;;;;;13.06;58.48;93094.03;2065550;69;20249;-75
2023/10/13 03:33:14;;;;;;;5.57;3.15;;;;;;;13.07;58.36;93089.84;2068923;69;20156;-76
2023/10/13 03:35:53;;;;;;;11.45;3.10;;;;;;;13.18;57.80;93100.38;2068343;69;20227;-75
2023/10/13 03:38:19;;;;;;;7.00;3.05;;;;;;;13.14;58.27;93094.50;2068914;69;20206;-76
2023/10/13 03:40:48;;;;;;;7.75;3.90;;;;;;;12.98;58.54;93093.56;2068793;69;20133;-76
2023/10/13 03:43:16;;;;;;;9.48;3.28;;;;;;;13.04;57.93;93096.75;2068804;69;20145;-74
2023/10/13 03:45:48;;;;;;;9.50;2.72;;;;;;;13.01;58.56;93100.78;2068576;69;20175;-74
2023/10/13 03:51:54;;;;;;;8.13;3.30;;;;;;;13.05;57.21;93095.38;2068052;69;20141;-75
2023/10/13 03:53:55;;;;;;;7.68;3.30;;;;;;;13.00;58.08;93107.81;2065180;69;20524;-74
2023/10/13 03:56:38;;;;;;;9.63;3.72;;;;;;;12.95;57.63;93095.53;2068860;69;20149;-74
2023/10/13 04:01:32;;;;;;;6.30;3.67;;;;;;;12.81;59.27;93085.50;2068739;69;20168;-75
2023/10/13 04:04:04;;;;;;;9.30;3.47;;;;;;;12.83;58.76;93103.31;2068682;69;20144;-74
2023/10/13 04:17:29;;;;;;;10.43;3.53;;;;;;;12.53;60.67;93116.34;2072284;69;20148;-75
2023/10/13 04:33:52;;;;;;;8.52;3.80;;;;;;;12.48;59.63;93108.25;2072798;69;20175;-76
2023/10/13 04:41:57;;;;;;;8.75;3.70;;;;;;;12.16;61.64;93105.66;2072910;69;20148;-75
2023/10/13 04:49:29;;;;;;;16.98;6.05;;;;;;;11.95;62.48;93117.78;2072703;69;20140;-75
2023/10/13 04:51:58;;;;;;;17.73;4.63;;;;;;;12.04;62.46;93118.28;2072877;69;20518;-76
2023/10/13 04:54:45;;;;;;;10.80;4.00;;;;;;;12.09;62.11;93115.09;2072751;69;20630;-75
2023/10/13 06:29:45;;;;;;;9.57;5.65;;;;;;;12.05;61.96;93151.56;2069633;69;20147;-74
2023/10/13 06:32:16;;;;;;;14.15;5.50;;;;;;;12.11;62.21;93156.84;2072394;69;20599;-75
2023/10/13 06:34:45;;;;;;;11.25;6.10;;;;;;;11.94;62.84;93150.16;2068973;69;20162;-74
2023/10/13 06:37:29;;;;;;;12.80;5.30;;;;;;;12.03;62.47;93148.59;2072250;69;20151;-73
2023/10/13 06:40:06;;;;;;;14.35;5.32;;;;;;;12.07;62.19;93148.13;2072343;69;20512;-75
2023/10/13 06:42:39;;;;;;;14.52;5.90;;;;;;;12.03;62.67;93150.69;2072179;69;20144;-74
2023/10/13 06:45:08;;;;;;;13.13;5.53;;;;;;;12.09;62.73;93162.34;2069007;69;20604;-76
2023/10/13 06:47:42;;;;;;;9.75;5.55;;;;;;;12.07;61.72;93157.31;2072079;69;20167;-74
2023/10/13 06:50:15;;;;;;;16.65;5.65;;;;;;;12.13;63.01;93162.59;2072087;69;20155;-75
2023/10/13 06:52:45;;;;;;;10.57;5.40;;;;;;;12.15;62.91;93160.66;2068644;69;20147;-74
2023/10/13 06:55:23;;;;;;;14.32;5.07;;;;;;;12.31;59.13;93175.03;2072338;69;20261;-75
2023/10/13 06:57:51;;;;;;;16.65;6.00;;;;;;;12.05;63.14;93173.38;2072325;69;20156;-76
2023/10/13 07:00:27;;;;;;;10.13;5.35;;;;;;;12.15;62.71;93179.66;2072318;69;20228;-74
2023/10/13 07:02:53;;;;;;;13.50;5.60;;;;;;;12.16;63.16;93183.97;2072352;69;20528;-74
2023/10/13 07:05:19;;;;;;;17.63;5.50;;;;;;;12.10;64.02;93186.41;2069101;69;20210;-74
2023/10/13 07:07:45;;;;;;;14.55;6.15;;;;;;;12.14;63.47;93181.75;2072451;69;20152;-74
2023/10/13 07:10:14;;;;;;;14.52;6.60;;;;;;;12.15;63.42;93185.31;2068787;69;20156;-75
2023/10/13 07:12:43;;;;;;;11.10;5.72;;;;;;;12.26;62.88;93178.94;2071993;69;20164;-74
2023/10/13 07:17:54;;;;;;;12.02;6.35;;;;;;;12.27;63.26;93177.59;2068579;69;20588;-74
2023/10/13 07:22:57;;;;;;;17.40;6.10;;;;;;;12.30;63.14;93176.38;2072294;69;20527;-73
2023/10/13 07:25:25;;;;;;;15.25;6.35;;;;;;;12.30;64.09;93170.72;2072186;69;20659;-75
2023/10/13 07:27:53;;;;;;;13.98;6.20;;;;;;;12.28;63.53;93169.84;2068805;69;20175;-74
2023/10/13 07:30:26;;;;;;;13.50;5.80;;;;;;;12.35;63.66;93174.53;2072121;69;20179;-75
2023/10/13 07:32:51;;;;;;;10.73;6.50;;;;;;;12.41;63.41;93170.00;2072324;69;20140;-74
2023/10/13 07:35:26;;;;;;;15.75;7.18;;;;;;;12.44;63.15;93168.03;2072093;69;20249;-75
2023/10/13 07:37:53;;;;;;;13.27;6.88;;;;;;;12.49;63.59;93169.75;2069257;69;20198;-74
2023/10/13 07:40:27;;;;;;;13.77;6.35;;;;;;;12.44;64.65;93170.88;2072214;69;20148;-74
2023/10/13 07:43:00;;;;;;;21.17;6.47;;;;;;;12.56;63.88;93177.25;2072031;69;20156;-74
2023/10/13 07:45:40;;;;;;;11.13;6.43;;;;;;;12.59;63.78;93169.63;2068572;69;20145;-74
2023/10/13 07:48:12;;;;;;;11.32;6.88;;;;;;;12.66;62.55;93163.03;2071910;69;20144;-77
2023/10/13 07:50:41;;;;;;;12.43;6.68;;;;;;;12.72;62.85;93163.38;2068598;69;20165;-75
2023/10/13 07:53:20;;;;;;;14.77;6.20;;;;;;;12.60;63.16;93156.97;2072251;69;20144;-72
2023/10/13 07:55:55;;;;;;;15.45;6.80;;;;;;;12.63;62.74;93152.94;2072155;69;20236;-74
2023/10/13 07:58:27;;;;;;;12.95;6.70;;;;;;;12.68;63.07;93152.56;2072184;69;20129;-73
2023/10/13 08:01:06;;;;;;;12.30;7.07;;;;;;;13.21;63.26;93163.44;2072101;69;20137;-74
2023/10/13 08:03:44;;;;;;;12.15;6.38;;;;;;;13.77;59.41;93162.41;2069303;69;20149;-74
2023/10/13 08:08:38;;;;;;;15.88;5.78;;;;;;;13.97;60.96;93157.16;2072164;69;20132;-74
2023/10/13 08:11:11;;;;;;;13.27;5.60;;;;;;;14.61;61.33;93153.56;2071990;69;20180;-74
2023/10/13 08:13:46;;;;;;;19.77;6.70;;;;;;;15.22;59.75;93156.75;2068746;69;20144;-74
2023/10/13 08:16:22;;;;;;;12.18;5.10;;;;;;;15.70;56.46;93151.31;2072265;69;20247;-76
2023/10/13 08:18:51;;;;;;;11.55;4.38;;;;;;;16.00;55.11;93147.09;2072090;69;20144;-75
2023/10/13 08:21:22;;;;;;;14.82;4.97;;;;;;;16.28;54.30;93141.31;2072125;69;20613;-74
2023/10/13 08:27:32;;;;;;;11.75;4.82;;;;;;;16.99;53.12;93140.97;2071800;69;20137;-74
2023/10/13 08:31:49;;;;;;;11.48;4.45;;;;;;;17.91;51.17;93142.00;2073252;69;20182;-73
2023/10/13 08:34:23;;;;;;;10.60;4.50;;;;;;;18.04;50.21;93136.16;2069381;69;20220;-74
2023/10/13 08:36:49;;;;;;;12.25;4.15;;;;;;;18.53;49.47;93140.19;2073302;69;20160;-74
2023/10/13 08:42:11;;;;;;;7.30;3.75;;;;;;;19.13;45.83;93137.44;2066605;69;20147;-74
2023/10/13 08:44:45;;;;;;;7.70;3.90;;;;;;;19.25;46.44;93126.44;2075459;69;20136;-74
2023/10/13 08:47:18;;;;;;;11.75;4.00;;;;;;;19.72;45.25;93125.97;2069244;69;20248;-75
2023/10/13 08:49:51;;;;;;;8.35;4.03;;;;;;;19.67;45.48;93118.66;2075939;69;20183;-74
2023/10/13 08:58:02;;;;;;;14.15;5.07;;;;;;;20.95;44.01;93121.94;2075766;69;20227;-74
2023/10/13 09:00:55;;;;;;;20.15;9.68;;;;;;;20.80;44.08;93112.22;2075874;69;20156;-75
2023/10/13 09:03:29;;;;;;;15.77;6.95;;;;;;;20.65;42.79;93104.59;2072328;69;20622;-75
2023/10/13 09:06:01;;;;;;;11.05;5.07;;;;;;;21.36;43.88;93105.22;2075671;69;20144;-74
2023/10/13 09:08:35;;;;;;;7.65;4.03;;;;;;;21.39;43.01;93107.44;2075674;69;20140;-75
2023/10/13 09:11:13;;;;;;;7.40;3.47;;;;;;;21.64;40.67;93094.50;2075616;69;20208;-74
2023/10/13 09:13:45;;;;;;;5.60;3.10;;;;;;;21.71;40.48;93095.38;2072211;69;20610;-74
2023/10/13 09:19:06;;;;;;;8.02;3.08;;;;;;;21.88;41.67;93088.66;2072891;69;20614;-73
2023/10/13 09:27:01;;;;;;;8.38;3.10;;;;;;;22.82;38.08;93079.38;2069075;69;20615;-75
2023/10/13 09:29:29;;;;;;;6.82;3.17;;;;;;;23.78;38.08;93082.00;2071844;69;20155;-75
2023/10/13 09:32:03;;;;;;;9.93;3.22;;;;;;;24.21;35.18;93084.84;2072175;69;20243;-75
2023/10/13 09:34:30;;;;;;;7.80;3.20;;;;;;;23.99;36.36;93082.34;2072438;69;20156;-76
2023/10/13 09:37:03;;;;;;;7.57;2.83;;;;;;;24.67;34.57;93087.00;2072364;69;20148;-76
2023/10/13 09:39:29;;;;;;;9.10;2.80;;;;;;;24.94;33.47;93073.72;2066239;69;20243;-76
2023/10/13 09:41:59;;;;;;;4.93;2.55;;;;;;;25.28;32.97;93071.25;2072089;69;20594;-75
2023/10/13 09:44:30;;;;;;;7.50;3.05;;;;;;;24.79;32.96;93069.91;2066201;69;20530;-76
2023/10/13 09:47:29;;;;;;;9.20;2.70;;;;;;;25.46;33.68;93064.25;2072186;69;20159;-75
2023/10/13 09:49:57;;;;;;;6.63;3.00;;;;;;;25.89;32.40;93059.69;2069265;69;20132;-75
2023/10/13 09:52:27;;;;;;;8.13;3.03;;;;;;;26.77;32.36;93051.72;2068909;69;20243;-75
2023/10/13 09:55:19;;;;;;;6.55;2.65;;;;;;;26.77;32.17;93052.44;2072306;69;20148;-75
2023/10/13 09:57:57;;;;;;;7.10;2.70;;;;;;;26.62;33.08;93050.91;2068733;69;20224;-75
2023/10/13 10:03:14;;;;;;;4.70;2.78;;;;;;;28.21;31.72;93044.94;2072253;69;20146;-74
2023/10/13 10:06:03;;;;;;;7.25;2.85;;;;;;;28.92;29.74;93033.31;2072270;69;20136;-74
2023/10/13 10:08:38;;;;;;;6.85;2.67;;;;;;;28.07;29.25;93034.09;2069436;69;20212;-74
2023/10/13 10:11:07;;;;;;;5.88;2.90;;;;;;;29.41;29.38;93026.59;2072310;69;20228;-74
2023/10/13 10:13:44;;;;;;;6.00;2.83;;;;;;;29.63;28.55;93020.72;2071987;69;20239;-74
2023/10/13 10:16:22;;;;;;;5.72;2.75;;;;;;;30.72;27.09;93017.75;2068863;69;20164;-73
2023/10/13 10:19:01;;;;;;;6.40;2.63;;;;;;;29.48;28.51;93020.06;2072321;69;20231;-74
2023/10/13 10:21:37;;;;;;;5.75;2.78;;;;;;;28.77;28.37;93017.38;2072305;69;20136;-75
2023/10/13 10:24:30;;;;;;;6.03;2.88;;;;;;;30.95;27.31;93006.59;2072143;69;20140;-74
2023/10/13 10:26:56;;;;;;;7.75;2.58;;;;;;;30.35;27.22;93006.44;2072312;69;20151;-75
2023/10/13 10:29:22;;;;;;;6.63;2.65;;;;;;;31.98;26.08;93003.84;2071783;69;20199;-75
2023/10/13 10:31:49;;;;;;;7.70;2.70;;;;;;;31.59;27.34;93001.47;2072070;69;20152;-74
2023/10/13 10:34:18;;;;;;;7.35;2.63;;;;;;;30.88;28.32;92995.06;2068839;69;20175;-73
2023/10/13 10:36:58;;;;;;;6.70;2.80;;;;;;;33.26;26.59;93000.94;2071973;69;20141;-73
2023/10/13 10:39:45;;;;;;;8.43;2.88;;;;;;;33.46;26.20;92997.63;2072035;69;20180;-75
2023/10/13 10:42:18;;;;;;;5.22;2.40;;;;;;;34.33;24.48;92986.19;2068461;69;20136;-75
2023/10/13 10:44:44;;;;;;;7.20;2.42;;;;;;;35.35;24.63;92995.25;2071728;69;20648;-74
2023/10/13 10:47:19;;;;;;;6.43;2.60;;;;;;;35.60;23.86;92982.84;2071669;69;20152;-76
2023/10/13 10:49:47;;;;;;;7.68;2.42;;;;;;;36.87;23.62;92982.50;2071534;69;20150;-76
2023/10/13 10:52:22;;;;;;;5.72;2.75;;;;;;;36.92;22.54;92971.38;2071446;69;20595;-78
2023/10/13 10:55:00;;;;;;;8.35;2.55;;;;;;;37.96;21.48;92967.59;2068402;69;20191;-75
2023/10/13 10:57:28;;;;;;;10.73;2.30;;;;;;;38.19;22.40;92973.31;2068369;69;20201;-76
2023/10/13 11:00:11;;;;;;;4.80;2.40;;;;;;;38.01;20.38;92960.06;2071994;69;20650;-76
2023/10/13 11:02:39;;;;;;;6.10;2.03;;;;;;;38.91;19.54;92956.44;2071532;69;20156;-76
2023/10/13 11:05:06;;;;;;;3.42;2.10;;;;;;;40.24;19.43;92954.13;2071854;69;20618;-76
2023/10/13 11:07:35;;;;;;;6.00;2.17;;;;;;;41.13;19.83;92951.91;2071752;69;20156;-77
2023/10/13 11:10:27;;;;;;;8.15;2.47;;;;;;;41.57;18.17;92936.34;2071894;69;20166;-77
2023/10/13 11:13:11;;;;;;;4.63;1.85;;;;;;;39.12;19.63;92931.16;2068208;69;20583;-76
2023/10/13 11:15:44;;;;;;;5.63;2.28;;;;;;;39.80;19.84;92917.09;2071726;69;20153;-75
2023/10/13 11:18:16;;;;;;;5.43;2.05;;;;;;;39.82;19.08;92910.41;2068403;69;20175;-76
2023/10/13 11:20:45;;;;;;;5.07;2.20;;;;;;;39.75;19.56;92909.25;2071231;69;20160;-76
2023/10/13 11:23:15;;;;;;;5.75;2.20;;;;;;;42.06;17.66;92907.81;2071915;69;20217;-77
2023/10/13 11:25:44;;;;;;;4.32;2.05;;;;;;;44.02;16.38;92905.03;2068346;69;20140;-77
2023/10/13 11:28:20;;;;;;;4.20;2.10;;;;;;;44.22;16.69;92894.13;2071411;69;20152;-75
2023/10/13 11:30:51;;;;;;;5.05;1.98;;;;;;;45.91;17.57;92893.13;2071862;69;20136;-77
2023/10/13 11:33:20;;;;;;;7.55;2.22;;;;;;;45.72;15.92;92881.81;2071228;69;20657;-77
2023/10/13 11:36:13;;;;;;;6.18;2.33;;;;;;;44.73;15.53;92878.94;2072265;69;20254;-78
2023/10/13 11:38:57;;;;;;;8.18;2.20;;;;;;;43.37;15.78;92879.44;2067067;69;20140;-78
2023/10/13 11:41:23;;;;;;;6.35;1.90;;;;;;;44.88;14.94;92864.53;2072330;69;20140;-76
2023/10/13 11:43:53;;;;;;;6.20;1.85;;;;;;;46.12;14.48;92869.97;2068343;69;20147;-77
2023/10/13 11:49:18;;;;;;;4.72;1.92;;;;;;;47.57;16.01;92867.31;2071918;69;20622;-75
2023/10/13 11:51:48;;;;;;;5.05;1.80;;;;;;;47.89;15.42;92857.38;2068680;69;20270;-76
2023/10/13 11:54:18;;;;;;;7.22;1.90;;;;;;;48.01;13.24;92857.09;2065967;69;20278;-77
2023/10/13 11:56:46;;;;;;;6.35;1.92;;;;;;;48.23;14.18;92851.59;2072064;69;20188;-77
2023/10/13 11:59:18;;;;;;;7.45;2.00;;;;;;;48.46;13.59;92840.81;2071973;69;20237;-77
2023/10/13 12:04:49;;;;;;;7.35;1.90;;;;;;;50.44;13.92;92836.38;2069403;69;20167;-77
2023/10/13 12:07:23;;;;;;;5.15;2.03;;;;;;;50.32;13.40;92831.50;2072192;69;20144;-76
2023/10/13 12:12:27;;;;;;;4.97;1.80;;;;;;;50.88;12.52;92809.94;2071467;69;20217;-76
2023/10/13 12:14:57;;;;;;;5.75;2.00;;;;;;;48.76;14.13;92805.44;2072153;69;20179;-77
2023/10/13 12:17:36;;;;;;;4.88;1.63;;;;;;;51.50;13.07;92817.56;2072193;69;20232;-77
2023/10/13 12:20:09;;;;;;;5.57;1.80;;;;;;;52.79;12.57;92799.03;2063472;69;20611;-76
2023/10/13 12:22:54;;;;;;;8.07;1.88;;;;;;;51.91;11.80;92797.97;2072440;69;20136;-76
2023/10/13 12:28:40;;;;;;;5.13;1.80;;;;;;;50.56;13.54;92780.69;2072623;69;20148;-79
2023/10/13 12:30:57;;;;;;;5.75;1.67;;;;;;;48.82;14.41;92769.06;2072507;69;20172;-76
2023/10/13 12:33:25;;;;;;;5.38;1.70;;;;;;;49.14;13.37;92770.13;2068615;69;20168;-75
2023/10/13 12:50:12;;;;;;;5.82;1.70;;;;;;;50.94;12.90;92755.41;2058604;69;20318;-80
2023/10/13 12:52:38;;;;;;;6.18;1.70;;;;;;;52.43;12.17;92750.03;2058732;69;20156;-82
2023/10/13 12:55:09;;;;;;;6.55;2.00;;;;;;;51.70;12.17;92742.25;2058829;69;20185;-77
2023/10/13 12:57:42;;;;;;;6.43;1.98;;;;;;;46.82;15.25;92727.88;2056058;69;20145;-77
2023/10/13 13:00:21;;;;;;;5.00;1.80;;;;;;;48.56;15.28;92721.22;2058255;69;20204;-80
2023/10/13 13:02:47;;;;;;;7.18;1.80;;;;;;;49.42;15.12;92722.78;2058199;69;20558;-80
2023/10/13 13:05:13;;;;;;;5.93;1.88;;;;;;;50.39;13.57;92714.88;2058379;69;20166;-81
2023/10/13 13:07:46;;;;;;;6.68;1.95;;;;;;;50.48;13.39;92721.50;2055555;69;20656;-80
2023/10/13 13:10:16;;;;;;;6.13;2.15;;;;;;;49.85;13.88;92710.03;2058419;69;20630;-80
2023/10/13 13:12:42;;;;;;;5.85;1.85;;;;;;;49.78;14.21;92697.19;2058562;69;20242;-79
2023/10/13 13:15:09;;;;;;;7.53;1.77;;;;;;;48.76;14.39;92697.22;2066571;69;20160;-81
2023/10/13 13:17:42;;;;;;;5.57;1.88;;;;;;;44.82;16.24;92680.88;2069641;69;20144;-81
2023/10/13 13:20:25;;;;;;;6.65;1.65;;;;;;;44.76;15.53;92678.31;2069171;69;20149;-80
2023/10/13 13:22:54;;;;;;;7.75;2.00;;;;;;;43.83;16.76;92673.56;2066958;69;20151;-81
2023/10/13 13:25:25;;;;;;;9.43;2.40;;;;;;;42.75;15.98;92663.41;2069612;69;20163;-80
2023/10/13 13:27:52;;;;;;;5.80;1.73;;;;;;;42.43;18.26;92659.47;2068523;69;20147;-80
2023/10/13 13:30:21;;;;;;;7.03;1.90;;;;;;;39.98;19.90;92658.41;2069492;69;20207;-80
2023/10/13 13:32:50;;;;;;;4.88;1.88;;;;;;;40.67;19.03;92666.56;2068891;69;20556;-81
2023/10/13 13:35:18;;;;;;;9.02;2.22;;;;;;;40.60;19.03;92663.25;2069065;69;20507;-81
2023/10/13 13:37:46;;;;;;;8.77;2.13;;;;;;;40.36;18.68;92656.38;2069392;69;20152;-81
2023/10/13 13:40:15;;;;;;;8.95;2.60;;;;;;;38.96;19.51;92652.34;2068696;69;20137;-81
2023/10/13 13:42:43;;;;;;;;;;;;;;;39.34;20.43;92646.84;2068835;69;20183;-81
2023/10/13 13:45:27;;;;;;;7.03;2.17;;;;;;;39.13;20.77;92641.22;2065994;69;20045;-82
2023/10/13 13:47:54;;;;;;;8.73;2.00;;;;;;;37.45;21.82;92631.91;2069202;69;20526;-79
2023/10/13 13:50:29;;;;;;;6.97;2.00;;;;;;;39.00;20.92;92630.84;2068810;69;20234;-81
2023/10/13 13:52:59;;;;;;;8.15;2.00;;;;;;;39.92;20.78;92629.25;2069060;69;20603;-81
2023/10/13 13:55:28;;;;;;;6.60;2.08;;;;;;;39.23;21.16;92627.56;2068505;69;20141;-80
2023/10/13 13:57:57;;;;;;;7.00;2.17;;;;;;;38.64;21.98;92619.28;2069316;69;20172;-81
2023/10/13 14:01:12;;;;;;;4.68;1.95;;;;;;;38.72;21.15;92615.22;2065912;69;20140;-81
2023/10/13 14:03:23;;;;;;;6.20;2.00;;;;;;;37.12;22.16;92627.38;2067855;69;20149;-80
2023/10/13 14:05:58;;;;;;;6.28;1.88;;;;;;;35.35;22.96;92614.13;2068777;69;20595;-81
2023/10/13 14:08:25;;;;;;;7.68;2.20;;;;;;;34.06;23.45;92596.97;2068738;69;20159;-81
2023/10/13 14:13:55;;;;;;;10.50;2.50;;;;;;;32.60;25.69;92581.81;2069150;69;20625;-81
2023/10/13 14:16:25;;;;;;;7.15;2.83;;;;;;;32.21;25.43;92581.97;2069271;69;20706;-80
2023/10/13 14:18:52;;;;;;;6.20;2.60;;;;;;;31.11;27.04;92582.69;2069327;69;20141;-81
2023/10/13 14:21:18;;;;;;;5.63;2.40;;;;;;;30.78;27.55;92576.72;2065945;69;20132;-81
2023/10/13 14:23:48;;;;;;;8.23;2.40;;;;;;;29.84;28.35;92577.41;2069218;69;20144;-81
2023/10/13 14:26:20;;;;;;;9.95;2.72;;;;;;;29.72;29.59;92563.06;2069291;69;20216;-80
2023/10/13 14:29:07;;;;;;;8.05;3.72;;;;;;;28.85;29.79;92574.13;2068723;69;20152;-80
2023/10/13 14:31:39;;;;;;;9.63;3.08;;;;;;;28.45;30.91;92567.25;2069332;69;20256;-81
2023/10/13 14:34:08;;;;;;;9.20;2.83;;;;;;;28.24;30.70;92569.56;2068660;69;20180;-81
2023/10/13 14:36:35;;;;;;;6.60;3.30;;;;;;;27.73;32.72;92567.00;2066121;69;20220;-79
2023/10/13 14:39:02;;;;;;;9.88;3.70;;;;;;;27.60;32.50;92575.00;2068986;69;20152;-79
2023/10/13 14:41:29;;;;;;;6.82;3.53;;;;;;;27.49;32.52;92567.09;2069141;69;20159;-79
2023/10/13 14:44:04;;;;;;;9.73;3.60;;;;;;;27.12;33.80;92564.34;2068575;69;20160;-79
2023/10/13 14:46:31;;;;;;;8.63;4.50;;;;;;;26.93;33.34;92562.94;2068999;69;20685;-78
2023/10/13 14:49:02;;;;;;;10.80;4.32;;;;;;;26.64;33.75;92565.16;2069238;69;20571;-81
2023/10/13 14:51:29;;;;;;;9.52;4.20;;;;;;;26.38;34.51;92560.09;2069290;69;20145;-79
2023/10/13 14:53:56;;;;;;;9.73;4.38;;;;;;;25.88;35.86;92565.13;2069125;69;20203;-79
2023/10/13 14:56:25;;;;;;;11.65;4.43;;;;;;;25.41;36.52;92549.84;2069200;69;20151;-78
2023/10/13 14:58:52;;;;;;;8.35;3.83;;;;;;;25.46;36.63;92543.38;2068577;69;20148;-78
2023/10/13 15:01:21;;;;;;;10.25;5.00;;;;;;;24.48;37.25;92551.56;2065630;69;20662;-80
2023/10/13 15:03:55;;;;;;;11.15;5.10;;;;;;;24.34;37.64;92540.66;2068925;69;20140;-80
2023/10/13 15:06:28;;;;;;;12.93;4.47;;;;;;;24.22;38.35;92549.19;2068713;69;20214;-78
2023/10/13 15:08:55;;;;;;;12.23;4.90;;;;;;;24.09;38.75;92541.88;2068633;69;20595;-78
2023/10/13 15:11:27;;;;;;;10.65;5.00;;;;;;;23.89;38.65;92530.22;2071502;69;20176;-78
2023/10/13 15:13:53;;;;;;;8.13;4.75;;;;;;;24.00;39.03;92535.34;2072410;69;20136;-79
2023/10/13 15:16:22;;;;;;;10.90;4.45;;;;;;;23.86;39.67;92535.22;2069186;69;20151;-78